createdAt,value
2023-04-02T00:01:22.547Z,86.72
2023-04-02T00:03:54.854Z,86.75
2023-04-02T00:06:35.210Z,87.69
2023-04-02T00:09:15.879Z,87.58
2023-04-02T00:11:50.162Z,87.98
2023-04-02T00:14:32.897Z,87.58
2023-04-02T00:17:04.230Z,86.62
2023-04-02T00:20:08.045Z,86.72
2023-04-02T00:22:36.402Z,84.53
2023-04-02T00:25:13.973Z,84.87
2023-04-02T00:27:43.737Z,83.92
2023-04-02T00:30:14.706Z,83.88
2023-04-02T00:32:44.129Z,83.63
2023-04-02T00:35:29.568Z,83.28
2023-04-02T00:37:58.820Z,83.82
2023-04-02T00:40:33.043Z,82.73
2023-04-02T00:43:05.314Z,82.66
2023-04-02T00:45:38.363Z,82.24
2023-04-02T00:48:32.727Z,82.51
2023-04-02T00:51:16.044Z,82.01
2023-04-02T00:53:48.752Z,83.41
2023-04-02T00:56:32.697Z,83.40
2023-04-02T00:59:01.882Z,84.07
2023-04-02T01:01:38.041Z,82.21
2023-04-02T01:04:07.063Z,81.24
2023-04-02T01:06:38.695Z,80.62
2023-04-02T01:09:15.766Z,80.75
2023-04-02T01:12:26.332Z,80.05
2023-04-02T01:15:19.058Z,81.31
2023-04-02T01:18:02.437Z,78.92
2023-04-02T01:20:39.810Z,79.41
2023-04-02T01:23:18.409Z,78.68
2023-04-02T01:26:17.837Z,79.37
2023-04-02T01:29:00.306Z,78.48
2023-04-02T01:31:29.728Z,78.73
2023-04-02T01:33:58.763Z,78.05
2023-04-02T01:36:54.988Z,77.58
2023-04-02T01:39:47.428Z,77.58
2023-04-02T01:42:38.076Z,76.59
2023-04-02T01:45:16.894Z,76.02
2023-04-02T01:47:46.639Z,76.51
2023-04-02T01:50:21.363Z,76.53
2023-04-02T01:52:58.284Z,76.94
2023-04-02T01:55:42.302Z,75.95
2023-04-02T01:58:12.880Z,77.32
2023-04-02T02:01:19.620Z,75.71
2023-04-02T02:03:48.927Z,76.24
2023-04-02T02:06:19.780Z,75.77
2023-04-02T02:09:05.170Z,75.10
2023-04-02T02:11:35.129Z,73.88
2023-04-02T02:14:14.012Z,74.16
2023-04-02T02:16:45.100Z,73.86
2023-04-02T02:19:24.453Z,73.12
2023-04-02T02:21:56.234Z,73.33
2023-04-02T02:24:29.891Z,72.17
2023-04-02T02:27:22.957Z,72.97
2023-04-02T02:29:56.807Z,72.26
2023-04-02T02:32:32.081Z,71.96
2023-04-02T02:35:14.257Z,71.16
2023-04-02T02:37:47.395Z,70.60
2023-04-02T02:40:25.618Z,70.11
2023-04-02T02:42:58.178Z,68.30
2023-04-02T02:45:30.552Z,69.70
2023-04-02T02:48:00.826Z,67.46
2023-04-02T02:50:32.859Z,67.11
2023-04-02T02:53:05.714Z,65.91
2023-04-02T02:55:38.858Z,68.83
2023-04-02T02:58:21.021Z,69.37
2023-04-02T03:00:50.370Z,66.95
2023-04-02T03:03:23.998Z,67.28
2023-04-02T03:06:03.023Z,67.25
2023-04-02T03:08:41.391Z,68.91
2023-04-02T03:11:18.302Z,68.38
2023-04-02T03:13:51.465Z,69.35
2023-04-02T03:16:36.319Z,65.90
2023-04-02T03:19:27.010Z,67.44
2023-04-02T03:22:04.169Z,64.89
2023-04-02T03:24:55.566Z,65.31
2023-04-02T03:27:38.514Z,64.38
2023-04-02T03:30:30.700Z,65.73
2023-04-02T03:33:05.277Z,63.77
2023-04-02T03:35:42.268Z,64.36
2023-04-02T03:38:19.506Z,64.26
2023-04-02T03:41:03.611Z,65.19
2023-04-02T03:43:45.358Z,63.73
2023-04-02T03:46:38.225Z,63.73
2023-04-02T03:49:19.963Z,62.57
2023-04-02T03:51:58.772Z,60.54
2023-04-02T03:54:27.526Z,60.58
2023-04-02T03:56:56.347Z,59.25
2023-04-02T03:59:36.892Z,60.96
2023-04-02T04:02:37.619Z,60.28
2023-04-02T04:05:08.719Z,61.41
2023-04-02T04:07:43.871Z,62.13
2023-04-02T04:10:21.333Z,61.72
2023-04-02T04:12:53.624Z,60.57
2023-04-02T04:16:04.008Z,60.84
2023-04-02T04:18:42.110Z,63.11
2023-04-02T04:21:38.064Z,62.43
2023-04-02T04:24:09.340Z,61.21
2023-04-02T04:26:50.319Z,61.98
2023-04-02T04:29:39.174Z,61.49
2023-04-02T04:32:33.208Z,62.03
2023-04-02T04:35:07.181Z,58.73
2023-04-02T04:37:41.511Z,59.00
2023-04-02T04:40:25.539Z,57.38
2023-04-02T04:42:58.679Z,58.47
2023-04-02T04:45:56.253Z,59.47
2023-04-02T04:48:42.821Z,58.36
2023-04-02T04:51:21.932Z,56.49
2023-04-02T04:53:53.933Z,59.00
2023-04-02T04:56:33.252Z,57.13
2023-04-02T04:59:42.612Z,58.61
2023-04-02T05:02:25.419Z,57.75
2023-04-02T05:04:54.489Z,55.29
2023-04-02T05:07:33.301Z,58.00
2023-04-02T05:10:29.063Z,55.68
2023-04-02T05:13:08.613Z,55.70
2023-04-02T05:15:43.154Z,57.65
2023-04-02T05:18:34.470Z,57.24
2023-04-02T05:21:49.023Z,56.69
2023-04-02T05:24:29.244Z,52.35
2023-04-02T05:27:04.877Z,55.67
2023-04-02T05:29:38.780Z,54.37
2023-04-02T05:32:10.191Z,53.70
2023-04-02T05:34:42.171Z,53.79
2023-04-02T05:37:32.080Z,53.90
2023-04-02T05:40:12.941Z,52.81
2023-04-02T05:42:48.835Z,53.12
2023-04-02T05:45:38.226Z,52.45
2023-04-02T05:48:30.683Z,50.98
2023-04-02T05:51:01.088Z,49.23
2023-04-02T05:53:38.969Z,48.72
2023-04-02T05:56:12.958Z,49.05
2023-04-02T05:59:17.169Z,48.77
2023-04-02T06:02:09.685Z,49.47
2023-04-02T06:04:48.267Z,48.59
2023-04-02T06:07:34.122Z,47.88
2023-04-02T06:10:06.767Z,48.68
2023-04-02T06:12:47.274Z,49.93
2023-04-02T06:15:22.308Z,50.51
2023-04-02T06:18:07.693Z,49.42
2023-04-02T06:20:36.950Z,49.77
2023-04-02T06:23:20.602Z,48.78
2023-04-02T06:26:02.499Z,50.66
2023-04-02T06:28:54.961Z,48.93
2023-04-02T06:31:41.155Z,51.60
2023-04-02T06:34:17.715Z,50.56
2023-04-02T06:36:48.547Z,49.39
2023-04-02T06:39:25.828Z,49.52
2023-04-02T06:42:20.510Z,47.87
2023-04-02T06:44:49.448Z,50.78
2023-04-02T06:47:23.535Z,49.86
2023-04-02T06:50:17.593Z,48.78
2023-04-02T06:52:55.351Z,49.14
2023-04-02T06:56:14.608Z,46.19
2023-04-02T06:58:43.009Z,49.11
2023-04-02T07:01:19.183Z,46.62
2023-04-02T07:03:47.918Z,48.07
2023-04-02T07:06:19.283Z,47.88
2023-04-02T07:08:47.843Z,47.92
2023-04-02T07:11:22.317Z,48.87
2023-04-02T07:13:52.533Z,49.98
2023-04-02T07:16:23.942Z,48.65
2023-04-02T07:18:52.880Z,45.32
2023-04-02T07:21:21.715Z,46.54
2023-04-02T07:23:50.084Z,48.23
2023-04-02T07:26:21.366Z,46.02
2023-04-02T07:28:49.802Z,45.22
2023-04-02T07:31:21.023Z,49.01
2023-04-02T07:33:49.465Z,46.28
2023-04-02T07:36:20.977Z,47.37
2023-04-02T07:38:50.091Z,48.36
2023-04-02T07:41:20.549Z,49.39
2023-04-02T07:43:49.346Z,49.25
2023-04-02T07:46:20.040Z,49.89
2023-04-02T07:48:48.907Z,49.36
2023-04-02T07:51:26.130Z,49.55
2023-04-02T07:53:56.816Z,50.37
2023-04-02T07:56:26.779Z,50.13
2023-04-02T07:58:55.154Z,50.87
2023-04-02T08:01:28.800Z,50.47
2023-04-02T08:03:59.001Z,50.38
2023-04-02T08:06:27.372Z,50.40
2023-04-02T08:08:56.052Z,47.09
2023-04-02T08:11:24.750Z,47.29
2023-04-02T08:13:53.220Z,47.61
2023-04-02T08:16:21.623Z,50.92
2023-04-02T08:18:50.322Z,51.25
2023-04-02T08:21:18.737Z,50.62
2023-04-02T08:23:47.187Z,50.51
2023-04-02T08:26:19.797Z,50.00
2023-04-02T08:28:48.186Z,50.31
2023-04-02T08:31:16.672Z,51.34
2023-04-02T08:33:45.172Z,51.15
2023-04-02T08:36:18.950Z,49.90
2023-04-02T08:38:48.799Z,51.20
2023-04-02T08:41:29.019Z,49.09
2023-04-02T08:44:27.672Z,50.46
2023-04-02T08:47:07.120Z,48.71
2023-04-02T08:49:56.714Z,48.72
2023-04-02T08:52:32.265Z,49.85
2023-04-02T08:55:02.146Z,48.86
2023-04-02T08:57:56.786Z,48.49
2023-04-02T09:00:41.810Z,48.28
2023-04-02T09:03:32.435Z,48.99
2023-04-02T09:06:03.562Z,48.31
2023-04-02T09:08:33.824Z,48.81
2023-04-02T09:11:19.563Z,51.70
2023-04-02T09:13:50.798Z,49.14
2023-04-02T09:16:24.089Z,49.20
2023-04-02T09:18:55.235Z,49.73
2023-04-02T09:21:24.296Z,51.03
2023-04-02T09:23:52.619Z,51.07
2023-04-02T09:26:30.353Z,50.49
2023-04-02T09:29:25.653Z,50.31
2023-04-02T09:32:23.946Z,49.74
2023-04-02T09:35:15.101Z,50.50
2023-04-02T09:38:11.028Z,51.23
2023-04-02T09:41:02.522Z,51.01
2023-04-02T09:43:38.901Z,51.65
2023-04-02T09:46:24.490Z,51.56
2023-04-02T09:49:02.235Z,51.83
2023-04-02T09:51:35.183Z,51.07
2023-04-02T09:54:13.913Z,51.62
2023-04-02T09:57:01.404Z,50.85
2023-04-02T09:59:29.982Z,50.29
2023-04-02T10:02:04.690Z,51.01
2023-04-02T10:04:38.211Z,50.44
2023-04-02T10:07:08.073Z,50.18
2023-04-02T10:09:39.833Z,49.87
2023-04-02T10:12:15.077Z,52.99
2023-04-02T10:14:48.356Z,51.32
2023-04-02T10:17:31.435Z,51.74
2023-04-02T10:20:24.401Z,50.92
2023-04-02T10:22:52.823Z,49.10
2023-04-02T10:25:26.429Z,51.27
2023-04-02T10:28:11.003Z,50.81
2023-04-02T10:30:57.310Z,50.74
2023-04-02T10:33:52.175Z,49.35
2023-04-02T10:36:52.233Z,50.53
2023-04-02T10:39:40.647Z,50.25
2023-04-02T10:42:56.608Z,49.54
2023-04-02T10:45:48.949Z,49.55
2023-04-02T10:48:46.736Z,49.60
2023-04-02T10:51:35.145Z,51.45
2023-04-02T10:54:24.586Z,50.32
2023-04-02T10:56:55.839Z,50.46
2023-04-02T10:59:36.375Z,49.37
2023-04-02T11:02:27.185Z,50.28
2023-04-02T11:05:01.768Z,50.17
2023-04-02T11:07:38.370Z,50.42
2023-04-02T11:10:08.150Z,50.61
2023-04-02T11:12:53.307Z,50.64
2023-04-02T11:15:26.592Z,50.79
2023-04-02T11:17:55.697Z,50.55
2023-04-02T11:21:01.838Z,50.39
2023-04-02T11:23:33.615Z,51.84
2023-04-02T11:26:32.493Z,50.91
2023-04-02T11:29:13.352Z,51.74
2023-04-02T11:31:42.915Z,51.48
2023-04-02T11:34:43.382Z,52.52
2023-04-02T11:37:31.990Z,53.55
2023-04-02T11:40:01.813Z,53.39
2023-04-02T11:42:31.711Z,53.78
2023-04-02T11:45:24.537Z,55.38
2023-04-02T11:48:18.720Z,56.82
2023-04-02T11:50:49.508Z,57.27
2023-04-02T11:53:22.185Z,57.71
2023-04-02T11:56:03.033Z,59.11
2023-04-02T11:58:43.351Z,61.15
2023-04-02T12:01:33.414Z,56.31
2023-04-02T12:04:30.687Z,53.50
2023-04-02T12:07:13.796Z,53.82
2023-04-02T12:09:45.569Z,53.93
2023-04-02T12:12:44.050Z,54.07
2023-04-02T12:15:36.046Z,53.59
2023-04-02T12:18:25.341Z,53.23
2023-04-02T12:20:57.335Z,52.47
2023-04-02T12:23:32.871Z,53.18
2023-04-02T12:26:27.208Z,53.15
2023-04-02T12:28:57.268Z,53.55
2023-04-02T12:31:26.836Z,53.07
2023-04-02T12:33:55.547Z,53.36
2023-04-02T12:36:24.885Z,52.80
2023-04-02T12:38:56.138Z,52.71
2023-04-02T12:41:28.232Z,53.05
2023-04-02T12:44:02.994Z,52.69
2023-04-02T12:46:33.490Z,53.42
2023-04-02T12:49:24.771Z,53.37
2023-04-02T12:51:58.399Z,53.12
2023-04-02T12:54:26.965Z,53.83
2023-04-02T12:56:56.680Z,53.55
2023-04-02T12:59:40.059Z,53.98
2023-04-02T13:02:27.179Z,54.09
2023-04-02T13:04:58.456Z,55.01
2023-04-02T13:07:28.987Z,55.59
2023-04-02T13:10:00.961Z,55.61
2023-04-02T13:12:35.282Z,56.13
2023-04-02T13:15:08.697Z,56.24
2023-04-02T13:18:03.935Z,56.54
2023-04-02T13:20:40.705Z,57.06
2023-04-02T13:23:30.914Z,58.10
2023-04-02T13:26:21.140Z,58.62
2023-04-02T13:29:04.706Z,58.97
2023-04-02T13:31:34.366Z,58.94
2023-04-02T13:34:03.162Z,58.82
2023-04-02T13:36:31.603Z,60.16
2023-04-02T13:38:59.979Z,58.93
2023-04-02T13:41:31.199Z,60.14
2023-04-02T13:44:02.541Z,60.15
2023-04-02T13:46:35.886Z,60.00
2023-04-02T13:49:04.287Z,59.68
2023-04-02T13:52:06.302Z,59.28
2023-04-02T13:54:52.074Z,58.90
2023-04-02T13:57:20.902Z,60.44
2023-04-02T13:59:49.307Z,59.06
2023-04-02T14:02:21.420Z,59.47
2023-04-02T14:04:53.719Z,58.30
2023-04-02T14:07:33.036Z,58.19
2023-04-02T14:10:18.317Z,58.48
2023-04-02T14:12:58.468Z,58.73
2023-04-02T14:15:33.164Z,57.63
2023-04-02T14:18:28.544Z,56.78
2023-04-02T14:20:57.546Z,57.41
2023-04-02T14:23:57.258Z,57.73
2023-04-02T14:26:28.368Z,57.47
2023-04-02T14:29:02.747Z,58.93
2023-04-02T14:31:49.433Z,58.05
2023-04-02T14:34:36.763Z,57.78
2023-04-02T14:37:34.304Z,58.17
2023-04-02T14:40:26.571Z,57.83
2023-04-02T14:43:14.160Z,58.02
2023-04-02T14:45:42.549Z,58.57
2023-04-02T14:48:53.597Z,58.62
2023-04-02T14:51:38.767Z,58.76
2023-04-02T14:54:23.624Z,60.77
2023-04-02T14:57:22.283Z,61.57
2023-04-02T14:59:53.689Z,59.91
2023-04-02T15:02:52.019Z,62.18
2023-04-02T15:05:22.584Z,62.58
2023-04-02T15:08:02.720Z,62.21
2023-04-02T15:10:33.782Z,62.92
2023-04-02T15:13:07.747Z,63.27
2023-04-02T15:15:40.778Z,63.63
2023-04-02T15:18:18.176Z,64.21
2023-04-02T15:21:17.737Z,63.88
2023-04-02T15:24:07.786Z,64.14
2023-04-02T15:26:57.390Z,62.73
2023-04-02T15:29:29.676Z,63.54
2023-04-02T15:32:16.896Z,63.59
2023-04-02T15:35:00.714Z,65.07
2023-04-02T15:37:41.455Z,66.35
2023-04-02T15:40:44.938Z,66.39
2023-04-02T15:43:26.465Z,66.34
2023-04-02T15:46:18.867Z,67.06
2023-04-02T15:49:10.358Z,67.40
2023-04-02T15:52:09.676Z,67.71
2023-04-02T15:55:09.318Z,69.70
2023-04-02T15:58:04.963Z,70.00
2023-04-02T16:01:02.489Z,70.50
2023-04-02T16:03:39.676Z,70.50
2023-04-02T16:06:49.825Z,69.96
2023-04-02T16:09:31.723Z,70.11
2023-04-02T16:12:13.369Z,69.42
2023-04-02T16:14:46.142Z,67.91
2023-04-02T16:17:26.391Z,66.47
2023-04-02T16:23:00.607Z,65.78
2023-04-02T16:25:38.377Z,68.57
2023-04-02T16:28:26.297Z,68.42
2023-04-02T16:30:58.027Z,67.88
2023-04-02T16:33:40.396Z,68.67
2023-04-02T16:36:30.386Z,69.23
2023-04-02T16:39:27.751Z,66.78
2023-04-02T16:42:05.950Z,69.18
2023-04-02T16:44:45.521Z,70.26
2023-04-02T16:47:32.941Z,69.61
2023-04-02T16:50:39.127Z,69.02
2023-04-02T16:53:47.854Z,67.12
2023-04-02T16:56:36.008Z,68.66
2023-04-02T16:59:19.782Z,68.17
2023-04-02T17:02:00.543Z,67.99
2023-04-02T17:04:51.898Z,67.26
2023-04-02T17:07:32.452Z,66.63
2023-04-02T17:10:21.952Z,66.70
2023-04-02T17:13:03.893Z,68.81
2023-04-02T17:15:40.325Z,69.88
2023-04-02T17:18:20.830Z,68.32
2023-04-02T17:20:49.557Z,69.29
2023-04-02T17:23:20.417Z,67.93
2023-04-02T17:25:59.234Z,67.23
2023-04-02T17:28:37.620Z,67.49
2023-04-02T17:31:18.193Z,67.75
2023-04-02T17:33:46.677Z,68.24
2023-04-02T17:36:33.813Z,67.22
2023-04-02T17:39:21.510Z,67.20
2023-04-02T17:42:10.157Z,67.53
2023-04-02T17:45:19.866Z,67.12
2023-04-02T17:47:48.210Z,69.29
2023-04-02T17:50:22.371Z,71.27
2023-04-02T17:53:13.370Z,71.51
2023-04-02T17:55:56.546Z,72.01
2023-04-02T17:59:01.975Z,69.17
2023-04-02T18:01:52.139Z,71.67
2023-04-02T18:04:26.255Z,71.75
2023-04-02T18:07:18.750Z,72.20
2023-04-02T18:10:02.125Z,71.75
2023-04-02T18:12:58.144Z,72.88
2023-04-02T18:15:56.475Z,73.31
2023-04-02T18:18:51.669Z,69.80
2023-04-02T18:21:29.188Z,69.71
2023-04-02T18:24:08.997Z,68.66
2023-04-02T18:26:55.881Z,70.27
2023-04-02T18:29:42.081Z,69.32
2023-04-02T18:32:32.348Z,68.52
2023-04-02T18:35:19.224Z,69.07
2023-04-02T18:38:33.982Z,68.70
2023-04-02T18:41:30.156Z,68.57
2023-04-02T18:44:08.609Z,70.01
2023-04-02T18:46:51.487Z,68.65
2023-04-02T18:49:42.307Z,70.77
2023-04-02T18:52:17.207Z,68.91
2023-04-02T18:55:01.465Z,69.47
2023-04-02T18:57:34.938Z,67.96
2023-04-02T19:00:21.025Z,67.65
2023-04-02T19:02:57.471Z,67.87
2023-04-02T19:05:45.503Z,68.80
2023-04-02T19:08:27.191Z,68.54
2023-04-02T19:11:07.820Z,68.62
2023-04-02T19:13:37.747Z,69.21
2023-04-02T19:16:20.362Z,70.57
2023-04-02T19:19:21.254Z,71.22
2023-04-02T19:21:55.266Z,69.64
2023-04-02T19:24:29.299Z,70.88
2023-04-02T19:27:17.956Z,71.15
2023-04-02T19:29:52.005Z,70.22
2023-04-02T19:32:54.702Z,71.27
2023-04-02T19:35:30.381Z,71.23
2023-04-02T19:38:15.049Z,71.09
2023-04-02T19:41:03.221Z,72.08
2023-04-02T19:43:31.813Z,72.88
2023-04-02T19:46:02.625Z,71.88
2023-04-02T19:48:58.829Z,71.81
2023-04-02T19:51:28.108Z,72.06
2023-04-02T19:53:57.066Z,71.76
2023-04-02T19:56:25.477Z,72.50
2023-04-02T19:58:54.518Z,73.46
2023-04-02T20:01:23.298Z,74.47
2023-04-02T20:03:51.828Z,74.59
2023-04-02T20:06:20.200Z,72.88
2023-04-02T20:08:48.786Z,73.03
2023-04-02T20:11:17.319Z,71.40
2023-04-02T20:13:45.851Z,72.10
2023-04-02T20:16:15.375Z,72.71
2023-04-02T20:18:44.317Z,72.10
2023-04-02T20:21:12.689Z,73.06
2023-04-02T20:23:41.175Z,71.79
2023-04-02T20:26:09.948Z,71.97
2023-04-02T20:28:38.293Z,73.72
2023-04-02T20:31:12.599Z,71.56
2023-04-02T20:33:41.873Z,72.86
2023-04-02T20:36:16.641Z,72.81
2023-04-02T20:38:46.350Z,72.56
2023-04-02T20:41:16.991Z,72.81
2023-04-02T20:43:45.704Z,71.45
2023-04-02T20:46:14.224Z,70.63
2023-04-02T20:48:43.565Z,70.49
2023-04-02T20:51:15.631Z,70.91
2023-04-02T20:53:44.536Z,71.13
2023-04-02T20:56:15.465Z,71.85
2023-04-02T20:58:45.112Z,70.75
2023-04-02T21:01:23.126Z,71.57
2023-04-02T21:03:56.420Z,73.86
2023-04-02T21:06:27.102Z,75.69
2023-04-02T21:08:55.506Z,74.98
2023-04-02T21:11:24.826Z,73.17
2023-04-02T21:13:53.715Z,72.33
2023-04-02T21:16:30.406Z,72.28
2023-04-02T21:19:01.554Z,74.63
2023-04-02T21:21:30.444Z,73.99
2023-04-02T21:24:04.302Z,74.70
2023-04-02T21:26:38.901Z,72.17
2023-04-02T21:29:07.633Z,73.36
2023-04-02T21:31:38.983Z,72.76
2023-04-02T21:34:09.422Z,74.66
2023-04-02T21:36:41.266Z,75.57
2023-04-02T21:39:12.575Z,75.99
2023-04-02T21:41:46.230Z,76.56
2023-04-02T21:44:16.882Z,77.06
2023-04-02T21:46:46.131Z,77.02
2023-04-02T21:49:17.638Z,75.49
2023-04-02T21:51:48.709Z,75.57
2023-04-02T21:54:17.724Z,75.70
2023-04-02T21:56:47.725Z,75.67
2023-04-02T21:59:17.910Z,77.39
2023-04-02T22:01:49.510Z,78.01
2023-04-02T22:04:24.309Z,78.81
2023-04-02T22:06:53.840Z,79.59
2023-04-02T22:09:27.502Z,78.63
2023-04-02T22:12:01.264Z,77.09
2023-04-02T22:14:30.289Z,77.63
2023-04-02T22:17:02.232Z,77.49
2023-04-02T22:19:31.404Z,76.68
2023-04-02T22:21:59.746Z,77.35
2023-04-02T22:24:28.236Z,79.72
2023-04-02T22:26:56.970Z,79.92
2023-04-02T22:29:25.349Z,81.81
2023-04-02T22:31:53.892Z,82.66
2023-04-02T22:34:22.341Z,82.50
2023-04-02T22:36:50.722Z,82.99
2023-04-02T22:39:19.196Z,83.68
2023-04-02T22:41:48.008Z,84.05
2023-04-02T22:44:16.894Z,84.12
2023-04-02T22:46:45.442Z,83.48
2023-04-02T22:49:19.867Z,82.80
2023-04-02T22:51:48.509Z,81.07
2023-04-02T22:54:17.066Z,81.86
2023-04-02T22:56:45.612Z,82.16
2023-04-02T22:59:14.007Z,82.74
2023-04-02T23:01:42.433Z,81.54
2023-04-02T23:04:10.819Z,81.22
2023-04-02T23:06:39.211Z,82.73
2023-04-02T23:09:07.637Z,83.97
2023-04-02T23:11:36.313Z,84.81
2023-04-02T23:14:04.762Z,84.77
2023-04-02T23:16:33.297Z,81.69
2023-04-02T23:19:02.740Z,79.83
2023-04-02T23:21:31.430Z,80.61
2023-04-02T23:23:59.834Z,83.45
2023-04-02T23:26:32.348Z,84.63
2023-04-02T23:29:01.882Z,84.94
2023-04-02T23:31:30.851Z,84.86
2023-04-02T23:33:59.259Z,84.55
2023-04-02T23:36:30.438Z,84.16
2023-04-02T23:39:02.289Z,84.45
2023-04-02T23:41:31.584Z,85.74
2023-04-02T23:44:00.928Z,86.42
2023-04-02T23:46:30.645Z,85.88
2023-04-02T23:49:00.476Z,84.77
2023-04-02T23:51:30.264Z,84.86
2023-04-02T23:53:58.712Z,84.90
2023-04-02T23:56:27.178Z,84.61
2023-04-02T23:58:55.810Z,83.71
